sensor_id;sensor_type;location;lat;lon;timestamp;P1;durP1;ratioP1;P2;durP2;ratioP2
12861;SDS011;6499;66.348;14.134;2023-08-12T00:01:06;0.30;;;0.30;;
12861;SDS011;6499;66.348;14.134;2023-08-12T00:03:32;0.40;;;0.40;;
12861;SDS011;6499;66.348;14.134;2023-08-12T00:05:59;0.40;;;0.40;;
12861;SDS011;6499;66.348;14.134;2023-08-12T00:08:27;0.63;;;0.30;;
12861;SDS011;6499;66.348;14.134;2023-08-12T00:10:54;0.30;;;0.30;;
12861;SDS011;6499;66.348;14.134;2023-08-12T00:13:20;0.57;;;0.40;;
12861;SDS011;6499;66.348;14.134;2023-08-12T00:15:48;1.30;;;0.50;;
12861;SDS011;6499;66.348;14.134;2023-08-12T00:18:15;0.40;;;0.40;;
12861;SDS011;6499;66.348;14.134;2023-08-12T00:20:42;0.30;;;0.30;;
12861;SDS011;6499;66.348;14.134;2023-08-12T00:23:09;0.73;;;0.50;;
12861;SDS011;6499;66.348;14.134;2023-08-12T00:25:36;0.40;;;0.40;;
12861;SDS011;6499;66.348;14.134;2023-08-12T00:28:02;0.40;;;0.40;;
12861;SDS011;6499;66.348;14.134;2023-08-12T00:30:29;0.53;;;0.40;;
12861;SDS011;6499;66.348;14.134;2023-08-12T00:32:57;1.70;;;0.40;;
12861;SDS011;6499;66.348;14.134;2023-08-12T00:35:23;1.00;;;0.50;;
12861;SDS011;6499;66.348;14.134;2023-08-12T00:37:50;0.50;;;0.30;;
12861;SDS011;6499;66.348;14.134;2023-08-12T00:40:16;0.37;;;0.37;;
12861;SDS011;6499;66.348;14.134;2023-08-12T00:42:43;1.43;;;0.40;;
12861;SDS011;6499;66.348;14.134;2023-08-12T00:45:09;0.40;;;0.40;;
12861;SDS011;6499;66.348;14.134;2023-08-12T00:47:37;0.70;;;0.40;;
12861;SDS011;6499;66.348;14.134;2023-08-12T00:50:06;1.03;;;0.30;;
12861;SDS011;6499;66.348;14.134;2023-08-12T00:52:34;0.30;;;0.30;;
12861;SDS011;6499;66.348;14.134;2023-08-12T00:55:01;0.40;;;0.40;;
12861;SDS011;6499;66.348;14.134;2023-08-12T00:57:44;0.60;;;0.60;;
12861;SDS011;6499;66.348;14.134;2023-08-12T01:00:11;0.70;;;0.40;;
12861;SDS011;6499;66.348;14.134;2023-08-12T01:02:38;0.40;;;0.40;;
12861;SDS011;6499;66.348;14.134;2023-08-12T01:05:06;0.47;;;0.40;;
12861;SDS011;6499;66.348;14.134;2023-08-12T01:07:32;0.83;;;0.50;;
12861;SDS011;6499;66.348;14.134;2023-08-12T01:09:59;0.60;;;0.40;;
12861;SDS011;6499;66.348;14.134;2023-08-12T01:12:26;0.50;;;0.50;;
12861;SDS011;6499;66.348;14.134;2023-08-12T01:14:56;0.30;;;0.30;;
12861;SDS011;6499;66.348;14.134;2023-08-12T01:17:25;1.33;;;0.40;;
12861;SDS011;6499;66.348;14.134;2023-08-12T01:19:53;0.60;;;0.43;;
12861;SDS011;6499;66.348;14.134;2023-08-12T01:22:21;0.50;;;0.50;;
12861;SDS011;6499;66.348;14.134;2023-08-12T01:24:51;0.40;;;0.40;;
12861;SDS011;6499;66.348;14.134;2023-08-12T01:27:17;1.20;;;0.40;;
12861;SDS011;6499;66.348;14.134;2023-08-12T01:29:45;0.40;;;0.40;;
12861;SDS011;6499;66.348;14.134;2023-08-12T01:32:14;0.57;;;0.40;;
12861;SDS011;6499;66.348;14.134;2023-08-12T01:34:46;0.57;;;0.50;;
12861;SDS011;6499;66.348;14.134;2023-08-12T01:37:15;0.70;;;0.60;;
12861;SDS011;6499;66.348;14.134;2023-08-12T01:39:43;0.57;;;0.40;;
12861;SDS011;6499;66.348;14.134;2023-08-12T01:42:12;0.50;;;0.37;;
12861;SDS011;6499;66.348;14.134;2023-08-12T01:44:39;0.33;;;0.33;;
12861;SDS011;6499;66.348;14.134;2023-08-12T01:47:07;1.07;;;0.50;;
12861;SDS011;6499;66.348;14.134;2023-08-12T01:49:50;0.60;;;0.37;;
12861;SDS011;6499;66.348;14.134;2023-08-12T01:52:17;0.53;;;0.50;;
12861;SDS011;6499;66.348;14.134;2023-08-12T01:55:00;0.40;;;0.30;;
12861;SDS011;6499;66.348;14.134;2023-08-12T01:57:27;0.70;;;0.40;;
12861;SDS011;6499;66.348;14.134;2023-08-12T01:59:54;0.40;;;0.40;;
12861;SDS011;6499;66.348;14.134;2023-08-12T02:02:20;1.20;;;0.50;;
12861;SDS011;6499;66.348;14.134;2023-08-12T02:04:48;0.73;;;0.60;;
12861;SDS011;6499;66.348;14.134;2023-08-12T02:07:14;0.37;;;0.37;;
12861;SDS011;6499;66.348;14.134;2023-08-12T02:09:41;0.30;;;0.30;;
12861;SDS011;6499;66.348;14.134;2023-08-12T02:12:08;0.40;;;0.37;;
12861;SDS011;6499;66.348;14.134;2023-08-12T02:14:36;0.50;;;0.40;;
12861;SDS011;6499;66.348;14.134;2023-08-12T02:17:03;1.23;;;0.50;;
12861;SDS011;6499;66.348;14.134;2023-08-12T02:19:30;0.60;;;0.60;;
12861;SDS011;6499;66.348;14.134;2023-08-12T02:21:57;0.47;;;0.40;;
12861;SDS011;6499;66.348;14.134;2023-08-12T02:24:23;0.63;;;0.63;;
12861;SDS011;6499;66.348;14.134;2023-08-12T02:26:50;0.87;;;0.50;;
12861;SDS011;6499;66.348;14.134;2023-08-12T02:29:16;0.93;;;0.60;;
12861;SDS011;6499;66.348;14.134;2023-08-12T02:31:44;0.60;;;0.50;;
12861;SDS011;6499;66.348;14.134;2023-08-12T02:34:11;0.50;;;0.50;;
12861;SDS011;6499;66.348;14.134;2023-08-12T02:36:37;0.40;;;0.40;;
12861;SDS011;6499;66.348;14.134;2023-08-12T02:39:04;0.43;;;0.30;;
12861;SDS011;6499;66.348;14.134;2023-08-12T02:41:31;0.90;;;0.40;;
12861;SDS011;6499;66.348;14.134;2023-08-12T02:43:57;0.53;;;0.40;;
12861;SDS011;6499;66.348;14.134;2023-08-12T02:46:24;0.73;;;0.40;;
12861;SDS011;6499;66.348;14.134;2023-08-12T02:48:52;1.63;;;0.60;;
12861;SDS011;6499;66.348;14.134;2023-08-12T02:51:18;0.73;;;0.50;;
12861;SDS011;6499;66.348;14.134;2023-08-12T02:53:46;0.67;;;0.47;;
12861;SDS011;6499;66.348;14.134;2023-08-12T02:56:13;0.40;;;0.40;;
12861;SDS011;6499;66.348;14.134;2023-08-12T02:58:39;0.40;;;0.40;;
12861;SDS011;6499;66.348;14.134;2023-08-12T03:01:06;0.77;;;0.50;;
12861;SDS011;6499;66.348;14.134;2023-08-12T03:03:33;0.73;;;0.43;;
12861;SDS011;6499;66.348;14.134;2023-08-12T03:06:00;0.57;;;0.57;;
12861;SDS011;6499;66.348;14.134;2023-08-12T03:08:27;0.40;;;0.40;;
12861;SDS011;6499;66.348;14.134;2023-08-12T03:10:57;0.57;;;0.50;;
12861;SDS011;6499;66.348;14.134;2023-08-12T03:13:24;1.50;;;0.40;;
12861;SDS011;6499;66.348;14.134;2023-08-12T03:15:51;0.63;;;0.53;;
12861;SDS011;6499;66.348;14.134;2023-08-12T03:18:17;0.60;;;0.60;;
12861;SDS011;6499;66.348;14.134;2023-08-12T03:20:44;0.40;;;0.40;;
12861;SDS011;6499;66.348;14.134;2023-08-12T03:23:12;0.50;;;0.50;;
12861;SDS011;6499;66.348;14.134;2023-08-12T03:25:38;2.63;;;0.50;;
12861;SDS011;6499;66.348;14.134;2023-08-12T03:28:05;0.90;;;0.43;;
12861;SDS011;6499;66.348;14.134;2023-08-12T03:30:31;0.40;;;0.40;;
12861;SDS011;6499;66.348;14.134;2023-08-12T03:32:59;0.40;;;0.40;;
12861;SDS011;6499;66.348;14.134;2023-08-12T03:35:26;0.73;;;0.50;;
12861;SDS011;6499;66.348;14.134;2023-08-12T03:37:52;0.30;;;0.30;;
12861;SDS011;6499;66.348;14.134;2023-08-12T03:40:20;0.50;;;0.50;;
12861;SDS011;6499;66.348;14.134;2023-08-12T03:42:47;0.60;;;0.50;;
12861;SDS011;6499;66.348;14.134;2023-08-12T03:45:13;0.40;;;0.40;;
12861;SDS011;6499;66.348;14.134;2023-08-12T03:47:40;0.50;;;0.50;;
12861;SDS011;6499;66.348;14.134;2023-08-12T03:50:07;0.70;;;0.60;;
12861;SDS011;6499;66.348;14.134;2023-08-12T03:52:33;0.77;;;0.50;;
12861;SDS011;6499;66.348;14.134;2023-08-12T03:55:00;1.20;;;0.57;;
12861;SDS011;6499;66.348;14.134;2023-08-12T03:57:28;1.40;;;0.50;;
12861;SDS011;6499;66.348;14.134;2023-08-12T03:59:54;0.50;;;0.50;;
12861;SDS011;6499;66.348;14.134;2023-08-12T04:02:21;0.57;;;0.50;;
12861;SDS011;6499;66.348;14.134;2023-08-12T04:04:47;0.40;;;0.40;;
12861;SDS011;6499;66.348;14.134;2023-08-12T04:07:14;1.20;;;0.50;;
12861;SDS011;6499;66.348;14.134;2023-08-12T04:09:40;0.50;;;0.50;;
12861;SDS011;6499;66.348;14.134;2023-08-12T04:12:07;0.97;;;0.50;;
12861;SDS011;6499;66.348;14.134;2023-08-12T04:14:35;0.60;;;0.50;;
12861;SDS011;6499;66.348;14.134;2023-08-12T04:17:01;0.47;;;0.37;;
12861;SDS011;6499;66.348;14.134;2023-08-12T04:19:28;0.50;;;0.40;;
12861;SDS011;6499;66.348;14.134;2023-08-12T04:21:54;0.70;;;0.37;;
12861;SDS011;6499;66.348;14.134;2023-08-12T04:24:21;0.40;;;0.40;;
12861;SDS011;6499;66.348;14.134;2023-08-12T04:26:47;0.50;;;0.40;;
12861;SDS011;6499;66.348;14.134;2023-08-12T04:29:14;0.93;;;0.50;;
12861;SDS011;6499;66.348;14.134;2023-08-12T04:31:42;0.40;;;0.37;;
12861;SDS011;6499;66.348;14.134;2023-08-12T04:34:08;0.40;;;0.40;;
12861;SDS011;6499;66.348;14.134;2023-08-12T04:36:35;0.80;;;0.60;;
12861;SDS011;6499;66.348;14.134;2023-08-12T04:39:01;0.50;;;0.40;;
12861;SDS011;6499;66.348;14.134;2023-08-12T04:41:28;0.40;;;0.40;;
12861;SDS011;6499;66.348;14.134;2023-08-12T04:43:55;0.60;;;0.50;;
12861;SDS011;6499;66.348;14.134;2023-08-12T04:46:21;0.70;;;0.50;;
12861;SDS011;6499;66.348;14.134;2023-08-12T04:48:49;0.60;;;0.50;;
12861;SDS011;6499;66.348;14.134;2023-08-12T04:51:16;0.67;;;0.50;;
12861;SDS011;6499;66.348;14.134;2023-08-12T04:53:42;0.87;;;0.50;;
12861;SDS011;6499;66.348;14.134;2023-08-12T04:56:09;0.50;;;0.50;;
12861;SDS011;6499;66.348;14.134;2023-08-12T04:58:35;0.70;;;0.63;;
12861;SDS011;6499;66.348;14.134;2023-08-12T05:01:02;0.40;;;0.40;;
12861;SDS011;6499;66.348;14.134;2023-08-12T05:03:29;0.60;;;0.60;;
12861;SDS011;6499;66.348;14.134;2023-08-12T05:05:57;0.80;;;0.57;;
12861;SDS011;6499;66.348;14.134;2023-08-12T05:08:23;0.93;;;0.40;;
12861;SDS011;6499;66.348;14.134;2023-08-12T05:10:50;0.50;;;0.50;;
12861;SDS011;6499;66.348;14.134;2023-08-12T05:13:16;0.70;;;0.50;;
12861;SDS011;6499;66.348;14.134;2023-08-12T05:15:44;0.40;;;0.40;;
12861;SDS011;6499;66.348;14.134;2023-08-12T05:18:11;0.40;;;0.40;;
12861;SDS011;6499;66.348;14.134;2023-08-12T05:20:37;0.40;;;0.40;;
12861;SDS011;6499;66.348;14.134;2023-08-12T05:23:06;0.50;;;0.40;;
12861;SDS011;6499;66.348;14.134;2023-08-12T05:25:35;0.43;;;0.43;;
12861;SDS011;6499;66.348;14.134;2023-08-12T05:28:01;0.97;;;0.47;;
12861;SDS011;6499;66.348;14.134;2023-08-12T05:30:28;1.17;;;0.50;;
12861;SDS011;6499;66.348;14.134;2023-08-12T05:32:54;0.50;;;0.50;;
12861;SDS011;6499;66.348;14.134;2023-08-12T05:35:21;0.67;;;0.40;;
12861;SDS011;6499;66.348;14.134;2023-08-12T05:37:47;0.80;;;0.70;;
12861;SDS011;6499;66.348;14.134;2023-08-12T05:40:15;0.40;;;0.40;;
12861;SDS011;6499;66.348;14.134;2023-08-12T05:42:42;0.87;;;0.40;;
12861;SDS011;6499;66.348;14.134;2023-08-12T05:45:08;0.30;;;0.30;;
12861;SDS011;6499;66.348;14.134;2023-08-12T05:47:35;0.40;;;0.40;;
12861;SDS011;6499;66.348;14.134;2023-08-12T05:50:02;0.43;;;0.43;;
12861;SDS011;6499;66.348;14.134;2023-08-12T05:52:29;0.60;;;0.50;;
12861;SDS011;6499;66.348;14.134;2023-08-12T05:54:55;0.47;;;0.40;;
12861;SDS011;6499;66.348;14.134;2023-08-12T05:57:23;0.53;;;0.50;;
12861;SDS011;6499;66.348;14.134;2023-08-12T05:59:50;0.40;;;0.40;;
12861;SDS011;6499;66.348;14.134;2023-08-12T06:02:16;1.33;;;0.40;;
12861;SDS011;6499;66.348;14.134;2023-08-12T06:04:43;0.33;;;0.30;;
12861;SDS011;6499;66.348;14.134;2023-08-12T06:07:10;0.47;;;0.47;;
12861;SDS011;6499;66.348;14.134;2023-08-12T06:09:36;0.67;;;0.50;;
12861;SDS011;6499;66.348;14.134;2023-08-12T06:12:03;0.97;;;0.40;;
12861;SDS011;6499;66.348;14.134;2023-08-12T06:14:31;0.50;;;0.47;;
12861;SDS011;6499;66.348;14.134;2023-08-12T06:16:58;0.57;;;0.40;;
12861;SDS011;6499;66.348;14.134;2023-08-12T06:19:24;0.40;;;0.40;;
12861;SDS011;6499;66.348;14.134;2023-08-12T06:21:51;0.53;;;0.50;;
12861;SDS011;6499;66.348;14.134;2023-08-12T06:24:17;0.40;;;0.40;;
12861;SDS011;6499;66.348;14.134;2023-08-12T06:26:44;0.30;;;0.30;;
12861;SDS011;6499;66.348;14.134;2023-08-12T06:29:10;0.30;;;0.30;;
12861;SDS011;6499;66.348;14.134;2023-08-12T06:31:38;0.87;;;0.37;;
12861;SDS011;6499;66.348;14.134;2023-08-12T06:34:05;0.40;;;0.40;;
12861;SDS011;6499;66.348;14.134;2023-08-12T06:36:32;0.40;;;0.40;;
12861;SDS011;6499;66.348;14.134;2023-08-12T06:38:58;0.30;;;0.30;;
12861;SDS011;6499;66.348;14.134;2023-08-12T06:41:25;0.40;;;0.40;;
12861;SDS011;6499;66.348;14.134;2023-08-12T06:43:51;1.33;;;0.30;;
12861;SDS011;6499;66.348;14.134;2023-08-12T06:46:18;0.53;;;0.40;;
12861;SDS011;6499;66.348;14.134;2023-08-12T06:48:46;0.30;;;0.30;;
12861;SDS011;6499;66.348;14.134;2023-08-12T06:51:12;0.50;;;0.40;;
12861;SDS011;6499;66.348;14.134;2023-08-12T06:53:39;0.40;;;0.40;;
12861;SDS011;6499;66.348;14.134;2023-08-12T06:56:06;0.30;;;0.30;;
12861;SDS011;6499;66.348;14.134;2023-08-12T06:58:32;0.40;;;0.40;;
12861;SDS011;6499;66.348;14.134;2023-08-12T07:00:59;0.40;;;0.40;;
12861;SDS011;6499;66.348;14.134;2023-08-12T07:03:25;0.53;;;0.30;;
12861;SDS011;6499;66.348;14.134;2023-08-12T07:05:53;0.30;;;0.30;;
12861;SDS011;6499;66.348;14.134;2023-08-12T07:08:20;0.30;;;0.30;;
12861;SDS011;6499;66.348;14.134;2023-08-12T07:10:47;1.57;;;0.50;;
12861;SDS011;6499;66.348;14.134;2023-08-12T07:13:13;0.67;;;0.30;;
12861;SDS011;6499;66.348;14.134;2023-08-12T07:15:40;0.40;;;0.30;;
12861;SDS011;6499;66.348;14.134;2023-08-12T07:18:06;0.30;;;0.30;;
12861;SDS011;6499;66.348;14.134;2023-08-12T07:20:33;1.03;;;0.40;;
12861;SDS011;6499;66.348;14.134;2023-08-12T07:23:01;0.33;;;0.33;;
12861;SDS011;6499;66.348;14.134;2023-08-12T07:25:27;0.40;;;0.40;;
12861;SDS011;6499;66.348;14.134;2023-08-12T07:27:54;1.00;;;0.40;;
12861;SDS011;6499;66.348;14.134;2023-08-12T07:30:20;0.30;;;0.30;;
12861;SDS011;6499;66.348;14.134;2023-08-12T07:32:47;0.47;;;0.47;;
12861;SDS011;6499;66.348;14.134;2023-08-12T07:35:14;0.40;;;0.40;;
12861;SDS011;6499;66.348;14.134;2023-08-12T07:37:40;0.40;;;0.40;;
12861;SDS011;6499;66.348;14.134;2023-08-12T07:40:09;0.30;;;0.30;;
12861;SDS011;6499;66.348;14.134;2023-08-12T07:42:36;0.30;;;0.30;;
12861;SDS011;6499;66.348;14.134;2023-08-12T07:45:03;0.33;;;0.30;;
12861;SDS011;6499;66.348;14.134;2023-08-12T07:47:30;0.30;;;0.30;;
12861;SDS011;6499;66.348;14.134;2023-08-12T07:49:56;0.33;;;0.20;;
12861;SDS011;6499;66.348;14.134;2023-08-12T07:52:23;1.67;;;0.40;;
12861;SDS011;6499;66.348;14.134;2023-08-12T07:54:50;0.30;;;0.30;;
12861;SDS011;6499;66.348;14.134;2023-08-12T07:57:18;0.23;;;0.20;;
12861;SDS011;6499;66.348;14.134;2023-08-12T07:59:49;0.30;;;0.30;;
12861;SDS011;6499;66.348;14.134;2023-08-12T08:02:15;0.30;;;0.30;;
12861;SDS011;6499;66.348;14.134;2023-08-12T08:04:42;0.30;;;0.30;;
12861;SDS011;6499;66.348;14.134;2023-08-12T08:07:08;1.07;;;0.40;;
12861;SDS011;6499;66.348;14.134;2023-08-12T08:09:35;0.37;;;0.37;;
12861;SDS011;6499;66.348;14.134;2023-08-12T08:12:02;0.20;;;0.20;;
12861;SDS011;6499;66.348;14.134;2023-08-12T08:14:30;1.27;;;0.30;;
12861;SDS011;6499;66.348;14.134;2023-08-12T08:16:57;0.20;;;0.20;;
12861;SDS011;6499;66.348;14.134;2023-08-12T08:19:24;0.30;;;0.30;;
12861;SDS011;6499;66.348;14.134;2023-08-12T08:21:50;1.73;;;0.40;;
12861;SDS011;6499;66.348;14.134;2023-08-12T08:24:17;0.27;;;0.27;;
12861;SDS011;6499;66.348;14.134;2023-08-12T08:26:43;0.43;;;0.30;;
12861;SDS011;6499;66.348;14.134;2023-08-12T08:29:10;0.30;;;0.30;;
12861;SDS011;6499;66.348;14.134;2023-08-12T08:31:38;0.30;;;0.30;;
12861;SDS011;6499;66.348;14.134;2023-08-12T08:34:05;0.33;;;0.33;;
12861;SDS011;6499;66.348;14.134;2023-08-12T08:36:32;0.37;;;0.37;;
12861;SDS011;6499;66.348;14.134;2023-08-12T08:38:59;0.30;;;0.30;;
12861;SDS011;6499;66.348;14.134;2023-08-12T08:41:25;0.50;;;0.30;;
12861;SDS011;6499;66.348;14.134;2023-08-12T08:43:53;0.30;;;0.30;;
12861;SDS011;6499;66.348;14.134;2023-08-12T08:46:21;0.27;;;0.27;;
12861;SDS011;6499;66.348;14.134;2023-08-12T08:48:50;0.37;;;0.30;;
12861;SDS011;6499;66.348;14.134;2023-08-12T08:51:17;0.30;;;0.30;;
12861;SDS011;6499;66.348;14.134;2023-08-12T08:53:44;0.20;;;0.20;;
12861;SDS011;6499;66.348;14.134;2023-08-12T08:56:10;0.30;;;0.30;;
12861;SDS011;6499;66.348;14.134;2023-08-12T08:58:37;0.40;;;0.40;;
12861;SDS011;6499;66.348;14.134;2023-08-12T09:01:04;0.30;;;0.20;;
12861;SDS011;6499;66.348;14.134;2023-08-12T09:03:31;0.40;;;0.40;;
12861;SDS011;6499;66.348;14.134;2023-08-12T09:05:59;0.30;;;0.30;;
12861;SDS011;6499;66.348;14.134;2023-08-12T09:08:26;0.57;;;0.30;;
12861;SDS011;6499;66.348;14.134;2023-08-12T09:10:54;0.30;;;0.30;;
12861;SDS011;6499;66.348;14.134;2023-08-12T09:13:21;0.87;;;0.30;;
12861;SDS011;6499;66.348;14.134;2023-08-12T09:15:48;0.30;;;0.30;;
12861;SDS011;6499;66.348;14.134;2023-08-12T09:18:15;0.30;;;0.30;;
12861;SDS011;6499;66.348;14.134;2023-08-12T09:20:41;1.53;;;0.40;;
12861;SDS011;6499;66.348;14.134;2023-08-12T09:23:11;0.30;;;0.30;;
12861;SDS011;6499;66.348;14.134;2023-08-12T09:25:41;0.30;;;0.30;;
12861;SDS011;6499;66.348;14.134;2023-08-12T09:28:10;0.23;;;0.23;;
12861;SDS011;6499;66.348;14.134;2023-08-12T09:30:37;0.77;;;0.30;;
12861;SDS011;6499;66.348;14.134;2023-08-12T09:33:05;0.30;;;0.30;;
12861;SDS011;6499;66.348;14.134;2023-08-12T09:35:32;0.37;;;0.33;;
12861;SDS011;6499;66.348;14.134;2023-08-12T09:38:00;0.30;;;0.30;;
12861;SDS011;6499;66.348;14.134;2023-08-12T09:40:29;0.40;;;0.40;;
12861;SDS011;6499;66.348;14.134;2023-08-12T09:42:56;0.30;;;0.30;;
12861;SDS011;6499;66.348;14.134;2023-08-12T09:45:23;0.20;;;0.20;;
12861;SDS011;6499;66.348;14.134;2023-08-12T09:47:49;0.83;;;0.40;;
12861;SDS011;6499;66.348;14.134;2023-08-12T09:50:16;0.57;;;0.30;;
12861;SDS011;6499;66.348;14.134;2023-08-12T09:52:42;1.03;;;0.37;;
12861;SDS011;6499;66.348;14.134;2023-08-12T09:55:09;0.77;;;0.33;;
12861;SDS011;6499;66.348;14.134;2023-08-12T09:57:38;1.37;;;0.30;;
12861;SDS011;6499;66.348;14.134;2023-08-12T10:00:07;0.30;;;0.30;;
12861;SDS011;6499;66.348;14.134;2023-08-12T10:02:38;0.30;;;0.30;;
12861;SDS011;6499;66.348;14.134;2023-08-12T10:05:05;0.50;;;0.30;;
12861;SDS011;6499;66.348;14.134;2023-08-12T10:07:32;0.23;;;0.23;;
12861;SDS011;6499;66.348;14.134;2023-08-12T10:09:59;0.30;;;0.30;;
12861;SDS011;6499;66.348;14.134;2023-08-12T10:12:25;0.87;;;0.37;;
12861;SDS011;6499;66.348;14.134;2023-08-12T10:14:53;0.37;;;0.37;;
12861;SDS011;6499;66.348;14.134;2023-08-12T10:17:20;0.30;;;0.30;;
12861;SDS011;6499;66.348;14.134;2023-08-12T10:19:47;0.50;;;0.20;;
12861;SDS011;6499;66.348;14.134;2023-08-12T10:22:14;0.30;;;0.30;;
12861;SDS011;6499;66.348;14.134;2023-08-12T10:24:42;0.30;;;0.30;;
12861;SDS011;6499;66.348;14.134;2023-08-12T10:27:09;0.43;;;0.30;;
12861;SDS011;6499;66.348;14.134;2023-08-12T10:29:36;0.90;;;0.40;;
12861;SDS011;6499;66.348;14.134;2023-08-12T10:32:04;0.30;;;0.30;;
12861;SDS011;6499;66.348;14.134;2023-08-12T10:34:31;0.33;;;0.33;;
12861;SDS011;6499;66.348;14.134;2023-08-12T10:37:00;0.30;;;0.30;;
12861;SDS011;6499;66.348;14.134;2023-08-12T10:39:27;0.40;;;0.40;;
12861;SDS011;6499;66.348;14.134;2023-08-12T10:41:54;0.40;;;0.40;;
12861;SDS011;6499;66.348;14.134;2023-08-12T10:44:21;0.30;;;0.30;;
12861;SDS011;6499;66.348;14.134;2023-08-12T10:46:51;0.33;;;0.33;;
12861;SDS011;6499;66.348;14.134;2023-08-12T10:49:20;0.30;;;0.30;;
12861;SDS011;6499;66.348;14.134;2023-08-12T10:51:47;0.70;;;0.37;;
12861;SDS011;6499;66.348;14.134;2023-08-12T10:54:14;0.57;;;0.40;;
12861;SDS011;6499;66.348;14.134;2023-08-12T11:02:06;1.67;;;0.80;;
12861;SDS011;6499;66.348;14.134;2023-08-12T11:04:38;0.70;;;0.30;;
12861;SDS011;6499;66.348;14.134;2023-08-12T11:07:14;0.53;;;0.47;;
12861;SDS011;6499;66.348;14.134;2023-08-12T11:09:40;1.10;;;0.47;;
12861;SDS011;6499;66.348;14.134;2023-08-12T11:12:08;0.63;;;0.57;;
12861;SDS011;6499;66.348;14.134;2023-08-12T11:14:46;0.80;;;0.60;;
12861;SDS011;6499;66.348;14.134;2023-08-12T11:17:13;1.47;;;0.60;;
12861;SDS011;6499;66.348;14.134;2023-08-12T11:19:41;0.93;;;0.67;;
12861;SDS011;6499;66.348;14.134;2023-08-12T11:22:08;1.23;;;0.60;;
12861;SDS011;6499;66.348;14.134;2023-08-12T11:24:37;0.50;;;0.50;;
12861;SDS011;6499;66.348;14.134;2023-08-12T11:27:04;0.47;;;0.40;;
12861;SDS011;6499;66.348;14.134;2023-08-12T11:29:31;1.83;;;0.50;;
12861;SDS011;6499;66.348;14.134;2023-08-12T11:31:57;2.00;;;0.50;;
12861;SDS011;6499;66.348;14.134;2023-08-12T11:34:24;0.60;;;0.60;;
12861;SDS011;6499;66.348;14.134;2023-08-12T11:36:52;0.60;;;0.60;;
12861;SDS011;6499;66.348;14.134;2023-08-12T11:39:19;0.50;;;0.50;;
12861;SDS011;6499;66.348;14.134;2023-08-12T11:41:46;1.13;;;0.60;;
12861;SDS011;6499;66.348;14.134;2023-08-12T11:44:14;1.47;;;0.43;;
12861;SDS011;6499;66.348;14.134;2023-08-12T11:46:41;0.40;;;0.40;;
12861;SDS011;6499;66.348;14.134;2023-08-12T11:49:08;2.23;;;0.63;;
12861;SDS011;6499;66.348;14.134;2023-08-12T11:51:34;0.50;;;0.50;;
12861;SDS011;6499;66.348;14.134;2023-08-12T11:54:03;4.57;;;0.90;;
12861;SDS011;6499;66.348;14.134;2023-08-12T11:56:30;1.33;;;0.70;;
12861;SDS011;6499;66.348;14.134;2023-08-12T11:58:56;2.07;;;1.00;;
12861;SDS011;6499;66.348;14.134;2023-08-12T12:01:24;1.60;;;0.90;;
12861;SDS011;6499;66.348;14.134;2023-08-12T12:03:51;2.37;;;0.93;;
12861;SDS011;6499;66.348;14.134;2023-08-12T12:06:17;2.50;;;0.90;;
12861;SDS011;6499;66.348;14.134;2023-08-12T12:08:44;1.43;;;0.60;;
12861;SDS011;6499;66.348;14.134;2023-08-12T12:11:13;1.07;;;0.60;;
12861;SDS011;6499;66.348;14.134;2023-08-12T12:13:40;0.87;;;0.80;;
12861;SDS011;6499;66.348;14.134;2023-08-12T12:16:09;1.93;;;0.80;;
12861;SDS011;6499;66.348;14.134;2023-08-12T12:18:36;0.93;;;0.70;;
12861;SDS011;6499;66.348;14.134;2023-08-12T12:21:02;1.37;;;0.53;;
12861;SDS011;6499;66.348;14.134;2023-08-12T12:23:29;2.10;;;0.60;;
12861;SDS011;6499;66.348;14.134;2023-08-12T12:25:59;0.30;;;0.30;;
12861;SDS011;6499;66.348;14.134;2023-08-12T12:28:27;0.73;;;0.47;;
12861;SDS011;6499;66.348;14.134;2023-08-12T12:30:54;1.43;;;0.50;;
12861;SDS011;6499;66.348;14.134;2023-08-12T12:33:21;0.50;;;0.50;;
12861;SDS011;6499;66.348;14.134;2023-08-12T12:35:47;0.80;;;0.50;;
12861;SDS011;6499;66.348;14.134;2023-08-12T12:38:14;1.13;;;0.70;;
12861;SDS011;6499;66.348;14.134;2023-08-12T12:40:40;1.00;;;0.67;;
12861;SDS011;6499;66.348;14.134;2023-08-12T12:43:07;0.50;;;0.50;;
12861;SDS011;6499;66.348;14.134;2023-08-12T12:45:35;0.60;;;0.53;;
12861;SDS011;6499;66.348;14.134;2023-08-12T12:48:01;0.80;;;0.43;;
12861;SDS011;6499;66.348;14.134;2023-08-12T12:50:28;0.60;;;0.60;;
12861;SDS011;6499;66.348;14.134;2023-08-12T12:52:54;0.63;;;0.63;;
12861;SDS011;6499;66.348;14.134;2023-08-12T12:55:21;1.33;;;0.90;;
12861;SDS011;6499;66.348;14.134;2023-08-12T12:57:47;1.37;;;0.80;;
12861;SDS011;6499;66.348;14.134;2023-08-12T13:00:14;0.73;;;0.50;;
12861;SDS011;6499;66.348;14.134;2023-08-12T13:02:42;0.80;;;0.50;;
12861;SDS011;6499;66.348;14.134;2023-08-12T13:05:09;1.27;;;0.50;;
12861;SDS011;6499;66.348;14.134;2023-08-12T13:07:35;1.17;;;0.70;;
12861;SDS011;6499;66.348;14.134;2023-08-12T13:10:02;0.60;;;0.40;;
12861;SDS011;6499;66.348;14.134;2023-08-12T13:12:29;1.07;;;0.50;;
12861;SDS011;6499;66.348;14.134;2023-08-12T13:14:55;0.60;;;0.60;;
12861;SDS011;6499;66.348;14.134;2023-08-12T13:17:22;1.10;;;0.70;;
12861;SDS011;6499;66.348;14.134;2023-08-12T13:19:49;1.37;;;0.70;;
12861;SDS011;6499;66.348;14.134;2023-08-12T13:22:16;0.60;;;0.60;;
12861;SDS011;6499;66.348;14.134;2023-08-12T13:24:42;1.33;;;0.80;;
12861;SDS011;6499;66.348;14.134;2023-08-12T13:27:09;1.63;;;0.90;;
12861;SDS011;6499;66.348;14.134;2023-08-12T13:29:36;2.03;;;0.80;;
12861;SDS011;6499;66.348;14.134;2023-08-12T13:32:02;0.57;;;0.50;;
12861;SDS011;6499;66.348;14.134;2023-08-12T13:34:29;1.43;;;0.80;;
12861;SDS011;6499;66.348;14.134;2023-08-12T13:36:57;1.27;;;0.60;;
12861;SDS011;6499;66.348;14.134;2023-08-12T13:39:23;1.67;;;0.60;;
12861;SDS011;6499;66.348;14.134;2023-08-12T13:41:50;1.20;;;0.60;;
12861;SDS011;6499;66.348;14.134;2023-08-12T13:44:16;0.60;;;0.60;;
12861;SDS011;6499;66.348;14.134;2023-08-12T13:46:43;0.67;;;0.60;;
12861;SDS011;6499;66.348;14.134;2023-08-12T13:49:10;0.50;;;0.50;;
12861;SDS011;6499;66.348;14.134;2023-08-12T13:51:36;0.60;;;0.60;;
12861;SDS011;6499;66.348;14.134;2023-08-12T13:54:05;1.63;;;0.70;;
12861;SDS011;6499;66.348;14.134;2023-08-12T13:56:31;0.43;;;0.40;;
12861;SDS011;6499;66.348;14.134;2023-08-12T13:58:58;0.77;;;0.47;;
12861;SDS011;6499;66.348;14.134;2023-08-12T14:01:24;0.53;;;0.50;;
12861;SDS011;6499;66.348;14.134;2023-08-12T14:03:51;0.60;;;0.60;;
12861;SDS011;6499;66.348;14.134;2023-08-12T14:06:17;0.40;;;0.40;;
12861;SDS011;6499;66.348;14.134;2023-08-12T14:08:44;0.80;;;0.50;;
12861;SDS011;6499;66.348;14.134;2023-08-12T14:11:12;0.80;;;0.30;;
12861;SDS011;6499;66.348;14.134;2023-08-12T14:13:40;0.47;;;0.47;;
12861;SDS011;6499;66.348;14.134;2023-08-12T14:16:06;0.40;;;0.40;;
12861;SDS011;6499;66.348;14.134;2023-08-12T14:18:33;1.00;;;0.40;;
12861;SDS011;6499;66.348;14.134;2023-08-12T14:21:00;0.40;;;0.40;;
12861;SDS011;6499;66.348;14.134;2023-08-12T14:23:26;0.50;;;0.50;;
12861;SDS011;6499;66.348;14.134;2023-08-12T14:25:53;0.40;;;0.40;;
12861;SDS011;6499;66.348;14.134;2023-08-12T14:28:21;0.40;;;0.40;;
12861;SDS011;6499;66.348;14.134;2023-08-12T14:30:47;0.60;;;0.40;;
12861;SDS011;6499;66.348;14.134;2023-08-12T14:33:14;0.43;;;0.43;;
12861;SDS011;6499;66.348;14.134;2023-08-12T14:35:40;0.70;;;0.60;;
12861;SDS011;6499;66.348;14.134;2023-08-12T14:38:07;0.60;;;0.57;;
12861;SDS011;6499;66.348;14.134;2023-08-12T14:40:33;0.80;;;0.70;;
12861;SDS011;6499;66.348;14.134;2023-08-12T14:43:00;0.70;;;0.70;;
12861;SDS011;6499;66.348;14.134;2023-08-12T14:45:28;1.53;;;0.50;;
12861;SDS011;6499;66.348;14.134;2023-08-12T14:47:55;1.17;;;0.60;;
12861;SDS011;6499;66.348;14.134;2023-08-12T14:50:21;2.17;;;1.00;;
12861;SDS011;6499;66.348;14.134;2023-08-12T14:52:48;1.53;;;0.70;;